createdAt,value
2023-03-20T00:03:44.901Z,100.00
2023-03-20T00:08:47.673Z,100.00
2023-03-20T00:13:49.909Z,100.00
2023-03-20T00:18:51.342Z,100.00
2023-03-20T00:23:54.489Z,99.19
2023-03-20T00:28:56.384Z,99.24
2023-03-20T00:34:03.596Z,99.73
2023-03-20T00:39:05.909Z,99.28
2023-03-20T00:44:22.001Z,99.13
2023-03-20T00:49:28.043Z,98.69
2023-03-20T00:54:30.191Z,98.29
2023-03-20T00:59:35.925Z,98.76
2023-03-20T01:04:42.177Z,98.18
2023-03-20T01:09:43.660Z,98.77
2023-03-20T01:14:51.323Z,98.78
2023-03-20T01:19:53.221Z,98.81
2023-03-20T01:24:54.688Z,98.49
2023-03-20T01:29:56.384Z,98.74
2023-03-20T01:34:58.202Z,98.22
2023-03-20T01:39:59.666Z,98.18
2023-03-20T01:45:01.083Z,97.27
2023-03-20T01:50:26.197Z,98.03
2023-03-20T01:55:28.896Z,96.73
2023-03-20T02:00:30.587Z,96.94
2023-03-20T02:05:33.103Z,97.12
2023-03-20T02:10:35.163Z,96.88
2023-03-20T02:16:09.922Z,96.93
2023-03-20T02:21:44.394Z,97.50
2023-03-20T02:26:55.270Z,97.09
2023-03-20T02:32:18.610Z,97.55
2023-03-20T02:37:43.499Z,97.29
2023-03-20T02:42:49.759Z,96.76
2023-03-20T02:48:16.419Z,97.45
2023-03-20T02:53:42.958Z,97.21
2023-03-20T02:58:53.550Z,97.51
2023-03-20T03:03:57.164Z,97.39
2023-03-20T03:09:04.656Z,96.90
2023-03-20T03:14:07.554Z,97.80
2023-03-20T03:19:15.403Z,97.57
2023-03-20T03:24:41.577Z,97.00
2023-03-20T03:29:46.076Z,96.94
2023-03-20T03:34:47.767Z,97.30
2023-03-20T03:39:54.934Z,97.30
2023-03-20T03:45:17.387Z,97.83
2023-03-20T03:50:29.071Z,98.48
2023-03-20T03:55:39.712Z,99.06
2023-03-20T04:00:43.777Z,99.83
2023-03-20T04:05:47.024Z,99.47
2023-03-20T04:10:48.565Z,100.00
2023-03-20T04:15:50.019Z,99.91
2023-03-20T04:20:52.413Z,99.38
2023-03-20T04:25:54.034Z,100.00
2023-03-20T04:30:57.788Z,99.44
2023-03-20T04:35:59.234Z,99.43
2023-03-20T04:41:00.870Z,99.49
2023-03-20T04:46:02.404Z,99.93
2023-03-20T04:51:03.993Z,99.98
2023-03-20T04:56:05.859Z,99.57
2023-03-20T05:01:07.615Z,99.78
2023-03-20T05:06:09.597Z,100.00
2023-03-20T05:11:10.994Z,100.00
2023-03-20T05:16:12.621Z,99.79
2023-03-20T05:21:14.481Z,100.00
2023-03-20T05:26:16.242Z,100.00
2023-03-20T05:31:18.874Z,100.00
2023-03-20T05:36:20.722Z,100.00
2023-03-20T05:41:22.212Z,100.00
2023-03-20T05:46:23.951Z,100.00
2023-03-20T05:51:25.689Z,100.00
2023-03-20T05:56:27.523Z,100.00
2023-03-20T06:01:29.014Z,98.92
2023-03-20T06:06:30.436Z,98.94
2023-03-20T06:11:33.274Z,96.77
2023-03-20T06:16:36.093Z,95.33
2023-03-20T06:21:37.952Z,93.30
2023-03-20T06:26:39.947Z,90.58
2023-03-20T06:31:41.557Z,90.09
2023-03-20T06:36:45.297Z,88.82
2023-03-20T06:41:47.139Z,89.02
2023-03-20T06:46:48.629Z,90.60
2023-03-20T06:51:50.444Z,90.69
2023-03-20T06:56:52.155Z,91.31
2023-03-20T07:01:54.198Z,91.27
2023-03-20T07:06:56.327Z,90.86
2023-03-20T07:11:59.581Z,89.58
2023-03-20T07:17:01.590Z,89.39
2023-03-20T07:22:09.208Z,88.51
2023-03-20T07:27:11.648Z,87.75
2023-03-20T07:32:13.848Z,86.67
2023-03-20T07:37:16.115Z,86.00
2023-03-20T07:42:18.485Z,86.74
2023-03-20T07:47:20.053Z,85.19
2023-03-20T07:52:21.530Z,82.62
2023-03-20T07:57:23.387Z,78.92
2023-03-20T08:02:24.890Z,74.53
2023-03-20T08:07:26.738Z,70.43
2023-03-20T08:12:28.233Z,68.82
2023-03-20T08:17:29.838Z,58.88
2023-03-20T08:22:31.636Z,54.70
2023-03-20T08:27:35.801Z,52.91
2023-03-20T08:32:37.902Z,55.86
2023-03-20T08:37:39.519Z,58.60
2023-03-20T08:42:41.302Z,57.59
2023-03-20T08:47:43.325Z,58.89
2023-03-20T08:52:46.916Z,58.28
2023-03-20T08:57:48.930Z,55.95
2023-03-20T09:02:51.838Z,57.24
2023-03-20T09:07:53.487Z,55.00
2023-03-20T09:12:55.009Z,55.49
2023-03-20T09:17:56.640Z,54.04
2023-03-20T09:22:58.074Z,50.29
2023-03-20T09:27:59.558Z,50.32
2023-03-20T09:33:01.306Z,50.44
2023-03-20T09:38:03.037Z,49.96
2023-03-20T09:43:22.193Z,50.20
2023-03-20T09:48:38.937Z,50.11
2023-03-20T09:54:01.817Z,51.08
2023-03-20T09:59:06.532Z,50.72
2023-03-20T10:04:10.231Z,50.00
2023-03-20T10:09:27.284Z,50.75
2023-03-20T10:14:31.702Z,52.33
2023-03-20T10:20:04.348Z,52.91
2023-03-20T10:25:28.705Z,52.57
2023-03-20T10:30:42.164Z,51.59
2023-03-20T10:35:58.562Z,50.23
2023-03-20T10:41:00.949Z,50.09
2023-03-20T10:46:13.398Z,48.51
2023-03-20T10:51:19.358Z,49.05
2023-03-20T10:56:32.409Z,48.62
2023-03-20T11:01:35.825Z,48.85
2023-03-20T11:06:57.933Z,49.02
2023-03-20T11:12:14.226Z,48.50
2023-03-20T11:17:16.971Z,48.35
2023-03-20T11:22:21.392Z,49.97
2023-03-20T11:27:28.476Z,51.44
2023-03-20T11:32:47.582Z,52.37
2023-03-20T11:37:52.415Z,52.74
2023-03-20T11:42:57.824Z,52.54
2023-03-20T11:48:02.777Z,50.97
2023-03-20T11:53:30.256Z,50.11
2023-03-20T11:58:32.622Z,51.42
2023-03-20T12:03:55.785Z,50.82
2023-03-20T12:09:02.401Z,50.02
2023-03-20T12:14:12.516Z,50.23
2023-03-20T12:19:20.583Z,52.04
2023-03-20T12:25:10.310Z,51.69
2023-03-20T12:30:27.037Z,51.22
2023-03-20T12:35:33.446Z,51.99
2023-03-20T12:40:44.964Z,51.11
2023-03-20T12:45:58.970Z,51.56
2023-03-20T12:51:13.572Z,51.88
2023-03-20T12:57:00.146Z,52.25
2023-03-20T13:02:07.199Z,52.68
2023-03-20T13:07:41.115Z,51.09
2023-03-20T13:13:03.006Z,52.61
2023-03-20T13:18:45.768Z,51.94
2023-03-20T13:23:59.084Z,51.13
2023-03-20T13:29:25.757Z,51.21
2023-03-20T13:34:57.755Z,51.11
2023-03-20T13:40:38.618Z,50.36
2023-03-20T13:45:42.874Z,50.94
2023-03-20T13:51:23.286Z,51.33
2023-03-20T13:57:16.062Z,51.79
2023-03-20T14:02:31.066Z,51.68
2023-03-20T14:07:38.178Z,50.94
2023-03-20T14:12:44.286Z,50.95
2023-03-20T14:17:48.978Z,51.37
2023-03-20T14:22:53.650Z,51.47
2023-03-20T14:28:21.766Z,50.87
2023-03-20T14:33:30.590Z,51.60
2023-03-20T14:38:37.614Z,52.67
2023-03-20T14:43:58.854Z,52.42
2023-03-20T14:49:21.499Z,52.26
2023-03-20T14:54:34.303Z,52.05
2023-03-20T14:59:37.304Z,51.81
2023-03-20T15:04:45.498Z,51.98
2023-03-20T15:09:51.030Z,52.58
2023-03-20T15:15:01.112Z,52.58
2023-03-20T15:20:21.781Z,52.73
2023-03-20T15:25:31.135Z,52.58
2023-03-20T15:30:41.831Z,53.46
2023-03-20T15:35:43.777Z,52.69
2023-03-20T15:40:51.374Z,53.13
2023-03-20T15:46:16.379Z,53.34
2023-03-20T15:51:26.063Z,53.63
2023-03-20T15:56:29.487Z,53.12
2023-03-20T16:01:34.278Z,54.23
2023-03-20T16:06:48.025Z,53.93
2023-03-20T16:11:58.137Z,54.24
2023-03-20T16:17:02.779Z,54.79
2023-03-20T16:22:21.496Z,55.10
2023-03-20T16:27:46.031Z,56.23
2023-03-20T16:32:53.863Z,56.28
2023-03-20T16:37:59.131Z,56.07
2023-03-20T16:43:12.598Z,56.43
2023-03-20T16:48:24.114Z,56.76
2023-03-20T16:53:29.881Z,57.28
2023-03-20T16:58:33.653Z,57.86
2023-03-20T17:03:48.700Z,58.56
2023-03-20T17:08:54.341Z,58.78
2023-03-20T17:13:57.521Z,59.28
2023-03-20T17:19:14.734Z,59.84
2023-03-20T17:24:18.352Z,60.16
2023-03-20T17:29:24.318Z,60.76
2023-03-20T17:34:26.283Z,60.98
2023-03-20T17:39:28.181Z,60.99
2023-03-20T17:44:30.079Z,61.18
2023-03-20T17:49:32.409Z,62.03
2023-03-20T17:54:33.939Z,62.22
2023-03-20T17:59:35.488Z,62.30
2023-03-20T18:04:37.144Z,62.92
2023-03-20T18:09:41.345Z,62.89
2023-03-20T18:14:44.320Z,62.81
2023-03-20T18:19:45.967Z,62.96
2023-03-20T18:24:47.910Z,63.07
2023-03-20T18:29:49.569Z,63.10
2023-03-20T18:34:51.168Z,63.20
2023-03-20T18:39:52.593Z,63.23
2023-03-20T18:44:54.028Z,63.25
2023-03-20T18:49:55.505Z,63.13
2023-03-20T18:54:56.908Z,63.42
2023-03-20T18:59:58.318Z,63.72
2023-03-20T19:04:59.733Z,63.80
2023-03-20T19:10:01.139Z,64.88
2023-03-20T19:15:02.617Z,64.63
2023-03-20T19:20:04.373Z,64.87
2023-03-20T19:25:06.188Z,65.72
2023-03-20T19:30:33.103Z,65.35
2023-03-20T19:40:57.974Z,66.07
2023-03-20T19:45:59.650Z,66.08
2023-03-20T19:51:01.540Z,66.79
2023-03-20T19:56:03.000Z,66.02
2023-03-20T20:01:13.973Z,66.37
2023-03-20T20:06:16.753Z,65.95
2023-03-20T20:11:20.608Z,66.19
2023-03-20T20:16:22.253Z,66.76
2023-03-20T20:27:13.047Z,67.45
2023-03-20T20:32:19.793Z,67.54
2023-03-20T20:38:13.948Z,67.59
2023-03-20T20:42:47.495Z,67.00
2023-03-20T20:47:49.847Z,67.17
2023-03-20T20:52:51.604Z,67.48
2023-03-20T20:57:57.707Z,68.07
2023-03-20T21:02:59.842Z,68.95
2023-03-20T21:08:01.274Z,69.39
2023-03-20T21:13:03.011Z,69.46
2023-03-20T21:18:05.076Z,70.06
2023-03-20T21:23:06.538Z,71.10
2023-03-20T21:28:09.268Z,71.00
2023-03-20T21:33:10.844Z,71.33
2023-03-20T21:38:55.353Z,71.47
2023-03-20T21:43:34.865Z,71.17
2023-03-20T21:49:19.063Z,71.07
2023-03-20T21:54:47.588Z,71.64
2023-03-20T21:59:57.901Z,71.00
2023-03-20T22:05:24.745Z,72.45
2023-03-20T22:16:10.746Z,72.59
2023-03-20T22:42:49.705Z,73.89
2023-03-20T22:47:42.172Z,73.80
2023-03-20T22:52:49.258Z,73.96
2023-03-20T22:58:05.958Z,74.17
2023-03-20T23:08:33.530Z,74.90
2023-03-20T23:13:37.520Z,75.41
2023-03-20T23:18:39.131Z,75.68
2023-03-20T23:23:40.759Z,76.33
2023-03-20T23:28:45.145Z,76.16
2023-03-20T23:33:52.088Z,77.03
2023-03-20T23:38:53.684Z,76.81
2023-03-20T23:43:55.174Z,76.96
2023-03-20T23:48:56.614Z,77.38
2023-03-20T23:53:58.081Z,77.94
2023-03-20T23:59:08.335Z,78.22
